createdAt,value
2023-04-27T00:03:32.431Z,2.51
2023-04-27T00:08:29.066Z,2.60
2023-04-27T00:13:25.408Z,2.58
2023-04-27T00:18:21.699Z,2.58
2023-04-27T00:23:17.985Z,2.50
2023-04-27T00:28:14.432Z,2.41
2023-04-27T00:33:10.761Z,2.36
2023-04-27T00:38:07.218Z,2.36
2023-04-27T00:43:03.521Z,2.44
2023-04-27T00:47:59.946Z,2.41
2023-04-27T00:52:57.381Z,2.35
2023-04-27T00:57:53.678Z,2.29
2023-04-27T01:02:52.065Z,2.22
2023-04-27T01:07:48.516Z,2.20
2023-04-27T01:12:44.862Z,2.22
2023-04-27T01:17:41.683Z,2.20
2023-04-27T01:22:38.442Z,2.30
2023-04-27T01:27:34.818Z,2.38
2023-04-27T01:32:31.257Z,2.41
2023-04-27T01:37:27.646Z,2.37
2023-04-27T01:42:23.946Z,2.50
2023-04-27T01:47:20.738Z,2.52
2023-04-27T01:52:17.033Z,2.51
2023-04-27T01:57:14.341Z,2.57
2023-04-27T02:02:10.709Z,2.58
2023-04-27T02:07:07.162Z,2.53
2023-04-27T02:12:03.711Z,2.35
2023-04-27T02:17:00.362Z,2.23
2023-04-27T02:21:56.769Z,2.26
2023-04-27T02:26:53.085Z,2.17
2023-04-27T02:31:49.475Z,1.99
2023-04-27T02:36:45.889Z,1.80
2023-04-27T02:41:42.241Z,1.68
2023-04-27T02:46:38.650Z,1.60
2023-04-27T02:51:34.984Z,1.49
2023-04-27T02:56:31.380Z,1.37
2023-04-27T03:01:28.264Z,0.99
2023-04-27T03:06:24.648Z,0.63
2023-04-27T03:11:20.947Z,0.54
2023-04-27T03:16:17.462Z,0.52
2023-04-27T03:21:13.894Z,0.57
2023-04-27T03:26:11.903Z,0.64
2023-04-27T03:31:11.288Z,0.61
2023-04-27T03:36:10.271Z,0.35
2023-04-27T03:41:06.615Z,0.21
2023-04-27T03:46:03.020Z,0.20
2023-04-27T03:51:00.732Z,0.09
2023-04-27T03:55:57.097Z,-0.08
2023-04-27T04:00:54.671Z,-0.18
2023-04-27T04:05:51.278Z,-0.13
2023-04-27T04:10:47.567Z,-0.17
2023-04-27T04:15:43.929Z,-0.14
2023-04-27T04:20:41.257Z,-0.25
2023-04-27T04:25:40.211Z,-0.27
2023-04-27T04:30:36.782Z,-0.30
2023-04-27T04:35:33.322Z,-0.22
2023-04-27T04:40:29.865Z,-0.14
2023-04-27T04:45:26.996Z,-0.13
2023-04-27T04:50:23.504Z,0.01
2023-04-27T04:55:20.543Z,0.23
2023-04-27T05:00:17.043Z,0.52
2023-04-27T05:05:13.467Z,0.67
2023-04-27T05:10:10.069Z,0.83
2023-04-27T05:15:07.138Z,0.70
2023-04-27T05:20:04.900Z,0.85
2023-04-27T05:25:01.356Z,1.48
2023-04-27T05:29:58.073Z,2.32
2023-04-27T05:34:54.388Z,3.13
2023-04-27T05:39:50.775Z,3.65
2023-04-27T05:44:47.103Z,4.08
2023-04-27T05:49:43.601Z,4.79
2023-04-27T05:54:39.958Z,5.06
2023-04-27T05:59:36.397Z,4.77
2023-04-27T06:04:33.417Z,4.58
2023-04-27T06:09:32.847Z,4.55
2023-04-27T06:14:29.155Z,4.91
2023-04-27T06:19:26.721Z,5.07
2023-04-27T06:24:23.284Z,5.33
2023-04-27T06:29:19.605Z,5.66
2023-04-27T06:34:15.951Z,6.16
2023-04-27T06:39:12.478Z,6.19
2023-04-27T06:44:09.094Z,6.60
2023-04-27T06:49:05.825Z,6.96
2023-04-27T06:54:02.159Z,7.06
2023-04-27T06:58:58.780Z,7.26
2023-04-27T07:03:55.446Z,7.73
2023-04-27T07:08:52.012Z,7.71
2023-04-27T07:13:48.399Z,7.07
2023-04-27T07:18:44.772Z,7.63
2023-04-27T07:23:41.788Z,7.86
2023-04-27T07:28:39.115Z,8.36
2023-04-27T07:33:35.505Z,8.67
2023-04-27T07:38:31.918Z,8.89
2023-04-27T07:43:28.593Z,9.43
2023-04-27T07:48:25.454Z,9.18
2023-04-27T07:53:21.883Z,9.42
2023-04-27T07:58:20.200Z,9.57
2023-04-27T08:03:17.278Z,8.87
2023-04-27T08:08:13.914Z,9.44
2023-04-27T08:13:10.500Z,9.64
2023-04-27T08:18:06.978Z,9.36
2023-04-27T08:23:03.368Z,9.60
2023-04-27T08:27:59.783Z,9.00
2023-04-27T08:32:56.280Z,9.70
2023-04-27T08:37:54.264Z,10.05
2023-04-27T08:42:56.148Z,9.19
2023-04-27T08:47:53.782Z,9.63
2023-04-27T08:52:51.051Z,9.66
2023-04-27T08:57:58.047Z,8.89
2023-04-27T09:02:54.628Z,8.65
2023-04-27T09:07:58.721Z,8.98
2023-04-27T09:13:00.241Z,9.20
2023-04-27T09:17:57.899Z,10.51
2023-04-27T09:22:55.974Z,10.07
2023-04-27T09:27:52.387Z,9.84
2023-04-27T09:32:57.325Z,9.52
2023-04-27T09:37:54.544Z,9.31
2023-04-27T09:42:51.111Z,8.92
2023-04-27T09:47:48.191Z,9.07
2023-04-27T09:52:46.565Z,9.56
2023-04-27T09:57:48.784Z,9.53
2023-04-27T10:03:03.620Z,10.16
2023-04-27T10:08:00.707Z,10.48
2023-04-27T10:13:00.869Z,10.05
2023-04-27T10:18:04.822Z,9.94
2023-04-27T10:23:01.542Z,10.98
2023-04-27T10:27:59.964Z,11.15
2023-04-27T10:32:57.304Z,10.50
2023-04-27T10:37:53.678Z,11.41
2023-04-27T10:42:49.999Z,11.75
2023-04-27T10:47:46.967Z,11.11
2023-04-27T10:52:44.232Z,10.85
2023-04-27T10:58:01.922Z,11.00
2023-04-27T11:03:18.490Z,11.55
2023-04-27T11:08:19.349Z,10.96
2023-04-27T11:13:28.005Z,10.28
2023-04-27T11:18:27.227Z,10.04
2023-04-27T11:23:30.533Z,10.27
2023-04-27T11:28:26.934Z,10.23
2023-04-27T11:33:23.306Z,11.44
2023-04-27T11:38:20.129Z,11.79
2023-04-27T11:43:16.715Z,11.68
2023-04-27T11:48:16.684Z,12.16
2023-04-27T11:53:13.066Z,12.21
2023-04-27T11:58:16.290Z,12.32
2023-04-27T12:03:13.011Z,12.12
2023-04-27T12:08:09.740Z,10.93
2023-04-27T12:13:06.136Z,10.41
2023-04-27T12:18:02.745Z,11.15
2023-04-27T12:22:59.108Z,10.89
2023-04-27T12:27:55.898Z,10.74
2023-04-27T12:32:52.319Z,11.71
2023-04-27T12:37:50.017Z,12.33
2023-04-27T12:42:46.362Z,12.51
2023-04-27T12:48:01.250Z,12.59
2023-04-27T12:52:59.805Z,13.30
2023-04-27T12:57:58.139Z,13.15
2023-04-27T13:02:54.636Z,13.13
2023-04-27T13:07:51.213Z,13.84
2023-04-27T13:12:47.532Z,14.85
2023-04-27T13:17:44.186Z,15.26
2023-04-27T13:22:40.906Z,15.11
2023-04-27T13:27:37.383Z,14.71
2023-04-27T13:32:33.896Z,12.77
2023-04-27T13:37:30.364Z,12.42
2023-04-27T13:42:29.365Z,12.23
2023-04-27T13:47:25.917Z,12.09
2023-04-27T13:52:22.286Z,12.51
2023-04-27T13:57:18.695Z,13.52
2023-04-27T14:02:15.138Z,13.58
2023-04-27T14:07:11.490Z,14.56
2023-04-27T14:12:09.217Z,13.08
2023-04-27T14:17:05.782Z,12.43
2023-04-27T14:22:02.270Z,13.08
2023-04-27T14:26:58.762Z,14.70
2023-04-27T14:31:56.005Z,15.37
2023-04-27T14:36:52.390Z,15.43
2023-04-27T14:41:48.780Z,13.95
2023-04-27T14:46:45.256Z,12.82
2023-04-27T14:51:43.502Z,13.94
2023-04-27T14:56:40.129Z,14.08
2023-04-27T15:01:37.173Z,14.79
2023-04-27T15:06:33.714Z,15.59
2023-04-27T15:11:30.117Z,15.36
2023-04-27T15:16:26.514Z,15.91
2023-04-27T15:21:23.027Z,15.99
2023-04-27T15:26:19.378Z,15.59
2023-04-27T15:31:15.925Z,15.18
2023-04-27T15:36:12.700Z,15.30
2023-04-27T15:41:09.283Z,15.20
2023-04-27T15:46:06.392Z,15.29
2023-04-27T15:51:03.881Z,14.31
2023-04-27T15:56:00.353Z,14.15
2023-04-27T16:00:56.815Z,14.19
2023-04-27T16:05:53.201Z,13.36
2023-04-27T16:10:50.055Z,13.06
2023-04-27T16:15:46.573Z,13.17
2023-04-27T16:20:42.859Z,13.19
2023-04-27T16:25:39.146Z,13.24
2023-04-27T16:30:37.557Z,13.29
2023-04-27T16:35:34.785Z,12.95
2023-04-27T16:40:31.904Z,12.98
2023-04-27T16:45:28.587Z,13.00
2023-04-27T16:50:25.473Z,13.07
2023-04-27T16:55:21.981Z,13.30
2023-04-27T17:00:18.508Z,13.65
2023-04-27T17:05:14.913Z,13.21
2023-04-27T17:10:11.571Z,13.86
2023-04-27T17:15:09.080Z,14.17
2023-04-27T17:20:07.122Z,14.48
2023-04-27T17:25:04.042Z,14.23
2023-04-27T17:30:00.567Z,13.81
2023-04-27T17:34:57.511Z,13.53
2023-04-27T17:39:54.442Z,13.21
2023-04-27T17:44:50.735Z,13.01
2023-04-27T17:49:47.032Z,12.78
2023-04-27T17:54:43.379Z,12.66
2023-04-27T17:59:39.713Z,12.25
2023-04-27T18:04:36.540Z,11.96
2023-04-27T18:09:33.177Z,11.68
2023-04-27T18:14:29.536Z,11.25
2023-04-27T18:19:25.837Z,10.87
2023-04-27T18:24:22.150Z,10.55
2023-04-27T18:29:18.493Z,10.14
2023-04-27T18:34:14.828Z,9.87
2023-04-27T18:39:11.526Z,9.47
2023-04-27T18:44:07.978Z,9.26
2023-04-27T18:49:04.269Z,9.13
2023-04-27T18:54:00.613Z,9.03
2023-04-27T18:58:57.412Z,8.97
2023-04-27T19:03:54.363Z,8.88
2023-04-27T19:08:51.176Z,8.78
2023-04-27T19:13:48.520Z,8.54
2023-04-27T19:18:44.882Z,8.48
2023-04-27T19:23:41.392Z,8.46
2023-04-27T19:28:37.854Z,8.48
2023-04-27T19:33:34.258Z,8.37
2023-04-27T19:38:30.872Z,8.29
2023-04-27T19:43:27.233Z,8.20
2023-04-27T19:48:23.614Z,8.02
2023-04-27T19:53:20.729Z,7.98
2023-04-27T19:58:17.243Z,7.80
2023-04-27T20:03:14.260Z,7.65
2023-04-27T20:08:10.955Z,7.58
2023-04-27T20:13:07.302Z,7.52
2023-04-27T20:18:03.690Z,7.36
2023-04-27T20:23:00.061Z,7.21
2023-04-27T20:27:56.382Z,7.13
2023-04-27T20:32:52.703Z,7.13
2023-04-27T20:37:49.148Z,7.03
2023-04-27T20:42:46.031Z,6.93
2023-04-27T20:47:42.529Z,6.98
2023-04-27T20:52:38.921Z,7.08
2023-04-27T20:57:35.555Z,7.00
2023-04-27T21:02:31.965Z,7.06
2023-04-27T21:07:28.386Z,7.13
2023-04-27T21:12:24.690Z,7.25
2023-04-27T21:17:21.027Z,7.55
2023-04-27T21:22:17.451Z,7.53
2023-04-27T21:27:13.944Z,7.73
2023-04-27T21:32:10.417Z,7.87
2023-04-27T21:37:06.718Z,7.84
2023-04-27T21:42:03.048Z,7.80
2023-04-27T21:47:00.183Z,7.80
2023-04-27T21:51:56.455Z,7.72
2023-04-27T21:56:52.976Z,7.63
2023-04-27T22:02:00.611Z,7.64
2023-04-27T22:06:56.927Z,7.79
2023-04-27T22:11:53.377Z,7.78
2023-04-27T22:16:50.266Z,7.68
2023-04-27T22:21:47.062Z,7.56
2023-04-27T22:26:43.404Z,7.52
2023-04-27T22:31:40.393Z,7.45
2023-04-27T22:36:36.912Z,7.38
2023-04-27T22:41:33.596Z,7.23
2023-04-27T22:46:30.073Z,7.17
2023-04-27T22:51:27.465Z,7.12
2023-04-27T22:56:24.049Z,7.03
2023-04-27T23:01:20.488Z,7.05
2023-04-27T23:06:16.861Z,7.02
2023-04-27T23:11:13.832Z,6.95
2023-04-27T23:16:10.506Z,7.00
2023-04-27T23:21:06.989Z,6.98
2023-04-27T23:26:03.389Z,7.01
2023-04-27T23:30:59.825Z,7.01
2023-04-27T23:35:56.303Z,7.01
2023-04-27T23:40:52.743Z,7.05
2023-04-27T23:45:51.315Z,7.09
2023-04-27T23:50:47.663Z,7.06
2023-04-27T23:55:44.043Z,7.07
